createdAt,value
2017-01-11T00:00:58.669Z,28.7
2017-01-11T00:01:58.724Z,28.7
2017-01-11T00:02:58.890Z,28.7
2017-01-11T00:03:57.298Z,28.6
2017-01-11T00:04:58.815Z,28.7
2017-01-11T00:05:57.279Z,28.7
2017-01-11T00:06:57.930Z,28.6
2017-01-11T00:07:57.419Z,28.6
2017-01-11T00:08:58.782Z,28.6
2017-01-11T00:09:57.297Z,28.6
2017-01-11T00:10:57.446Z,28.7
2017-01-11T00:11:58.976Z,28.7
2017-01-11T00:12:57.473Z,28.6
2017-01-11T00:13:59.625Z,28.7
2017-01-11T00:14:59.258Z,28.6
2017-01-11T00:15:59.218Z,28.6
2017-01-11T00:16:57.781Z,28.6
2017-01-11T00:18:00.011Z,28.6
2017-01-11T00:18:58.383Z,28.6
2017-01-11T00:19:57.989Z,28.6
2017-01-11T00:20:57.873Z,28.6
2017-01-11T00:21:58.859Z,28.6
2017-01-11T00:22:57.795Z,28.6
2017-01-11T00:23:59.475Z,28.6
2017-01-11T00:24:59.557Z,28.6
2017-01-11T00:25:57.986Z,28.6
2017-01-11T00:26:59.661Z,28.6
2017-01-11T00:27:59.507Z,28.6
2017-01-11T00:28:57.930Z,28.6
2017-01-11T00:29:59.608Z,28.6
2017-01-11T00:30:59.781Z,28.6
2017-01-11T00:31:59.785Z,28.6
2017-01-11T00:32:59.786Z,28.6
2017-01-11T00:33:58.396Z,28.6
2017-01-11T00:34:59.913Z,28.6
2017-01-11T00:35:59.941Z,28.6
2017-01-11T00:36:59.983Z,28.6
2017-01-11T00:38:00.851Z,28.6
2017-01-11T00:38:58.508Z,28.6
2017-01-11T00:39:58.720Z,28.6
2017-01-11T00:41:00.370Z,28.6
2017-01-11T00:41:58.893Z,28.6
2017-01-11T00:42:58.841Z,28.6
2017-01-11T00:43:58.899Z,28.6
2017-01-11T00:45:00.496Z,28.6
2017-01-11T00:46:00.214Z,28.6
2017-01-11T00:47:02.545Z,28.6
2017-01-11T00:48:00.707Z,28.6
2017-01-11T00:48:59.858Z,28.6
2017-01-11T00:50:00.838Z,28.6
2017-01-11T00:51:01.521Z,28.6
2017-01-11T00:51:59.344Z,28.6
2017-01-11T00:53:01.037Z,28.6
2017-01-11T00:54:01.114Z,28.6
2017-01-11T00:55:01.047Z,28.6
2017-01-11T00:55:59.642Z,28.6
2017-01-11T00:57:00.341Z,28.6
2017-01-11T00:57:59.609Z,28.6
2017-01-11T00:58:59.747Z,28.6
2017-01-11T00:59:59.864Z,28.6
2017-01-11T01:01:00.458Z,28.6
2017-01-11T01:01:59.858Z,28.6
2017-01-11T01:03:01.648Z,28.6
2017-01-11T01:04:01.589Z,28.6
2017-01-11T01:05:01.712Z,28.5
2017-01-11T01:06:01.627Z,28.6
2017-01-11T01:07:01.627Z,28.6
2017-01-11T01:08:01.719Z,28.6
2017-01-11T01:09:00.301Z,28.5
2017-01-11T01:10:00.365Z,28.6
2017-01-11T01:11:01.790Z,28.6
2017-01-11T01:12:02.016Z,28.6
2017-01-11T01:13:01.932Z,28.5
2017-01-11T01:14:00.914Z,28.6
2017-01-11T01:15:02.151Z,28.6
2017-01-11T01:16:00.511Z,28.6
2017-01-11T01:17:00.549Z,28.6
2017-01-11T01:18:00.568Z,28.6
2017-01-11T01:19:02.850Z,28.6
2017-01-11T01:20:02.460Z,28.5
2017-01-11T01:21:02.406Z,28.6
2017-01-11T01:22:02.631Z,28.6
2017-01-11T01:23:02.703Z,28.5
2017-01-11T01:24:02.738Z,28.5
2017-01-11T01:25:02.670Z,28.6
2017-01-11T01:26:01.329Z,28.5
2017-01-11T01:27:01.293Z,28.5
2017-01-11T01:28:02.756Z,28.5
2017-01-11T01:29:01.252Z,28.5
2017-01-11T01:30:01.488Z,28.5
2017-01-11T01:31:03.208Z,28.5
2017-01-11T01:32:01.398Z,28.5
2017-01-11T01:33:03.096Z,28.5
2017-01-11T01:34:03.292Z,28.5
2017-01-11T01:35:03.371Z,28.5
2017-01-11T01:36:01.839Z,28.5
2017-01-11T01:37:03.512Z,28.5
2017-01-11T01:38:01.844Z,28.5
2017-01-11T01:39:02.615Z,28.5
2017-01-11T01:40:03.640Z,28.5
2017-01-11T01:41:02.003Z,28.5
2017-01-11T01:42:02.239Z,28.5
2017-01-11T01:43:02.243Z,28.5
2017-01-11T01:44:03.846Z,28.5
2017-01-11T01:45:03.868Z,28.5
2017-01-11T01:46:02.168Z,28.5
2017-01-11T01:47:02.283Z,28.5
2017-01-11T01:48:03.410Z,28.5
2017-01-11T01:49:02.337Z,28.5
2017-01-11T01:50:02.415Z,28.5
2017-01-11T01:51:02.438Z,28.5
2017-01-11T01:52:03.981Z,28.5
2017-01-11T01:53:04.132Z,28.5
2017-01-11T01:54:02.513Z,28.5
2017-01-11T01:55:04.070Z,28.5
2017-01-11T01:56:02.575Z,28.5
2017-01-11T01:57:02.610Z,28.5
2017-01-11T01:58:04.299Z,28.5
2017-01-11T01:59:04.399Z,28.5
2017-01-11T02:00:04.333Z,28.5
2017-01-11T02:01:04.512Z,28.5
2017-01-11T02:02:02.827Z,28.5
2017-01-11T02:03:03.064Z,28.5
2017-01-11T02:04:03.138Z,28.5
2017-01-11T02:05:04.592Z,28.5
2017-01-11T02:06:04.726Z,28.5
2017-01-11T02:07:03.180Z,28.5
2017-01-11T02:08:05.399Z,28.5
2017-01-11T02:09:03.294Z,28.5
2017-01-11T02:10:03.258Z,28.5
2017-01-11T02:11:03.380Z,28.5
2017-01-11T02:12:03.340Z,28.5
2017-01-11T02:13:03.341Z,28.5
2017-01-11T02:14:05.732Z,28.5
2017-01-11T02:15:03.490Z,28.5
2017-01-11T02:16:04.964Z,28.5
2017-01-11T02:17:03.509Z,28.5
2017-01-11T02:18:03.606Z,28.5
2017-01-11T02:19:05.245Z,28.5
2017-01-11T02:20:05.294Z,28.5
2017-01-11T02:21:03.706Z,28.5
2017-01-11T02:22:03.846Z,28.5
2017-01-11T02:23:03.957Z,28.5
2017-01-11T02:24:05.602Z,28.5
2017-01-11T02:25:05.535Z,28.4
2017-01-11T02:26:04.083Z,28.5
2017-01-11T02:27:04.152Z,28.5
2017-01-11T02:28:04.104Z,28.5
2017-01-11T02:29:05.952Z,28.5
2017-01-11T02:30:06.446Z,28.5
2017-01-11T02:31:04.490Z,28.5
2017-01-11T02:32:05.259Z,28.5
2017-01-11T02:33:04.468Z,28.5
2017-01-11T02:34:05.205Z,28.5
2017-01-11T02:35:05.873Z,28.5
2017-01-11T02:36:04.603Z,28.5
2017-01-11T02:37:06.246Z,28.5
2017-01-11T02:38:04.817Z,28.5
2017-01-11T02:39:06.518Z,28.5
2017-01-11T02:40:06.404Z,28.5
2017-01-11T02:41:07.209Z,28.5
2017-01-11T02:42:06.613Z,28.5
2017-01-11T02:43:06.585Z,28.4
2017-01-11T02:44:06.653Z,28.5
2017-01-11T02:45:05.083Z,28.4
2017-01-11T02:46:06.727Z,28.5
2017-01-11T02:47:05.724Z,28.5
2017-01-11T02:48:06.557Z,28.4
2017-01-11T02:49:06.930Z,28.5
2017-01-11T02:50:07.021Z,28.5
2017-01-11T02:51:07.035Z,28.5
2017-01-11T02:52:05.468Z,28.4
2017-01-11T02:53:05.480Z,28.5
2017-01-11T02:54:05.627Z,28.5
2017-01-11T02:55:07.204Z,28.5
2017-01-11T02:56:05.739Z,28.5
2017-01-11T02:57:08.021Z,28.5
2017-01-11T02:58:06.933Z,28.4
2017-01-11T02:59:05.841Z,28.4
2017-01-11T03:00:05.908Z,28.5
2017-01-11T03:01:08.133Z,28.5
2017-01-11T03:02:07.528Z,28.5
2017-01-11T03:03:07.455Z,28.5
2017-01-11T03:04:06.762Z,28.5
2017-01-11T03:05:07.492Z,28.4
2017-01-11T03:06:07.746Z,28.4
2017-01-11T03:07:06.069Z,28.4
2017-01-11T03:08:06.034Z,28.4
2017-01-11T03:09:08.402Z,28.4
2017-01-11T03:10:06.222Z,28.4
2017-01-11T03:11:06.362Z,28.4
2017-01-11T03:12:07.980Z,28.4
2017-01-11T03:13:06.469Z,28.4
2017-01-11T03:14:06.376Z,28.4
2017-01-11T03:15:08.066Z,28.4
2017-01-11T03:16:06.398Z,28.4
2017-01-11T03:17:08.009Z,28.4
2017-01-11T03:18:08.775Z,28.4
2017-01-11T03:19:08.222Z,28.4
2017-01-11T03:20:08.334Z,28.4
2017-01-11T03:21:06.770Z,28.4
2017-01-11T03:22:08.470Z,28.4
2017-01-11T03:23:08.549Z,28.4
2017-01-11T03:24:08.547Z,28.4
2017-01-11T03:25:06.918Z,28.4
2017-01-11T03:26:08.707Z,28.4
2017-01-11T03:27:07.111Z,28.4
2017-01-11T03:28:08.803Z,28.4
2017-01-11T03:29:07.190Z,28.4
2017-01-11T03:30:07.329Z,28.4
2017-01-11T03:31:07.335Z,28.4
2017-01-11T03:32:07.916Z,28.4
2017-01-11T03:33:09.190Z,28.4
2017-01-11T03:34:09.348Z,28.4
2017-01-11T03:35:09.200Z,28.4
2017-01-11T03:36:09.232Z,28.4
2017-01-11T03:37:07.628Z,28.4
2017-01-11T03:38:09.200Z,28.4
2017-01-11T03:39:09.314Z,28.4
2017-01-11T03:40:07.832Z,28.4
2017-01-11T03:41:08.505Z,28.4
2017-01-11T03:42:07.935Z,28.4
2017-01-11T03:43:08.036Z,28.4
2017-01-11T03:44:08.129Z,28.4
2017-01-11T03:45:08.026Z,28.4
2017-01-11T03:46:10.465Z,28.4
2017-01-11T03:47:09.960Z,28.4
2017-01-11T03:48:09.818Z,28.4
2017-01-11T03:49:08.271Z,28.4
2017-01-11T03:50:09.050Z,28.4
2017-01-11T03:51:08.535Z,28.4
2017-01-11T03:52:10.193Z,28.4
2017-01-11T03:53:10.659Z,28.4
2017-01-11T03:54:08.477Z,28.4
2017-01-11T03:55:08.503Z,28.4
2017-01-11T03:56:10.208Z,28.3
2017-01-11T03:57:10.341Z,28.4
2017-01-11T03:58:10.331Z,28.4
2017-01-11T03:59:10.292Z,28.4
2017-01-11T04:00:08.831Z,28.4
2017-01-11T04:01:10.235Z,28.4
2017-01-11T04:02:08.759Z,28.3
2017-01-11T04:03:10.568Z,28.4
2017-01-11T04:04:10.602Z,28.4
2017-01-11T04:05:08.902Z,28.3
2017-01-11T04:06:10.619Z,28.4
2017-01-11T04:07:09.059Z,28.4
2017-01-11T04:08:10.762Z,28.4
2017-01-11T04:09:10.702Z,28.4
2017-01-11T04:10:10.701Z,28.4
2017-01-11T04:11:09.129Z,28.4
2017-01-11T04:12:10.841Z,28.4
2017-01-11T04:13:11.700Z,28.4
2017-01-11T04:14:09.292Z,28.4
2017-01-11T04:15:09.379Z,28.4
2017-01-11T04:16:09.494Z,28.3
2017-01-11T04:17:09.444Z,28.4
2017-01-11T04:18:09.662Z,28.4
2017-01-11T04:19:11.081Z,28.4
2017-01-11T04:20:11.104Z,28.3
2017-01-11T04:21:09.622Z,28.4
2017-01-11T04:22:09.654Z,28.4
2017-01-11T04:23:09.612Z,28.3
2017-01-11T04:24:11.380Z,28.3
2017-01-11T04:25:09.827Z,28.3
2017-01-11T04:26:11.447Z,28.3
2017-01-11T04:27:09.932Z,28.3
2017-01-11T04:28:10.179Z,28.3
2017-01-11T04:29:09.878Z,28.3
2017-01-11T04:30:10.036Z,28.3
2017-01-11T04:31:09.978Z,28.4
2017-01-11T04:32:11.603Z,28.3
2017-01-11T04:33:11.706Z,28.3
2017-01-11T04:34:11.819Z,28.3
2017-01-11T04:35:10.288Z,28.3
2017-01-11T04:36:11.442Z,28.3
2017-01-11T04:37:11.861Z,28.3
2017-01-11T04:38:12.041Z,28.3
2017-01-11T04:39:12.050Z,28.3
2017-01-11T04:40:10.547Z,28.3
2017-01-11T04:41:11.518Z,28.3
2017-01-11T04:42:10.625Z,28.3
2017-01-11T04:43:10.572Z,28.3
2017-01-11T04:44:11.374Z,28.3
2017-01-11T04:45:12.505Z,28.3
2017-01-11T04:46:10.982Z,28.3
2017-01-11T04:47:12.610Z,28.3
2017-01-11T04:48:11.636Z,28.3
2017-01-11T04:49:12.614Z,28.3
2017-01-11T04:50:11.049Z,28.3
2017-01-11T04:51:11.153Z,28.3
2017-01-11T04:52:12.793Z,28.3
2017-01-11T04:53:12.776Z,28.3
2017-01-11T04:54:12.788Z,28.3
2017-01-11T04:55:12.835Z,28.3
2017-01-11T04:56:11.427Z,28.3
2017-01-11T04:57:11.431Z,28.3
2017-01-11T04:58:11.527Z,28.3
2017-01-11T04:59:13.270Z,28.3
2017-01-11T05:00:13.310Z,28.3
2017-01-11T05:01:11.655Z,28.3
2017-01-11T05:02:13.480Z,28.3
2017-01-11T05:03:13.535Z,28.3
2017-01-11T05:04:11.967Z,28.3
2017-01-11T05:05:13.825Z,28.3
2017-01-11T05:06:12.563Z,28.3
2017-01-11T05:07:12.129Z,28.3
2017-01-11T05:08:12.139Z,28.3
2017-01-11T05:09:13.806Z,28.3
2017-01-11T05:10:13.445Z,28.3
2017-01-11T05:11:12.236Z,28.3
2017-01-11T05:12:12.267Z,28.2
2017-01-11T05:13:12.361Z,28.2
2017-01-11T05:14:13.212Z,28.3
2017-01-11T05:15:12.919Z,28.3
2017-01-11T05:16:14.247Z,28.3
2017-01-11T05:17:13.284Z,28.3
2017-01-11T05:18:14.293Z,28.3
2017-01-11T05:19:14.219Z,28.3
2017-01-11T05:20:12.778Z,28.3
2017-01-11T05:21:14.355Z,28.3
2017-01-11T05:22:12.883Z,28.3
2017-01-11T05:23:12.975Z,28.3
2017-01-11T05:24:14.600Z,28.3
2017-01-11T05:25:13.004Z,28.3
2017-01-11T05:26:13.204Z,28.3
2017-01-11T05:27:13.263Z,28.3
2017-01-11T05:28:14.845Z,28.3
2017-01-11T05:29:15.023Z,28.3
2017-01-11T05:30:14.816Z,28.3
2017-01-11T05:31:14.851Z,28.3
2017-01-11T05:32:14.961Z,28.3
2017-01-11T05:33:13.393Z,28.3
2017-01-11T05:34:15.101Z,28.3
2017-01-11T05:35:15.272Z,28.3
2017-01-11T05:36:13.777Z,28.3
2017-01-11T05:37:15.166Z,28.3
2017-01-11T05:38:15.197Z,28.3
2017-01-11T05:39:15.326Z,28.3
2017-01-11T05:40:14.532Z,28.3
2017-01-11T05:41:16.611Z,28.3
2017-01-11T05:42:15.868Z,28.3
2017-01-11T05:43:14.632Z,28.3
2017-01-11T05:44:14.547Z,28.3
2017-01-11T05:45:15.498Z,28.3
2017-01-11T05:46:13.860Z,28.3
2017-01-11T05:47:14.739Z,28.3
2017-01-11T05:48:15.575Z,28.3
2017-01-11T05:49:15.622Z,28.3
2017-01-11T05:50:14.135Z,28.3
2017-01-11T05:51:14.128Z,28.3
2017-01-11T05:52:14.222Z,28.3
2017-01-11T05:53:15.897Z,28.3
2017-01-11T05:54:14.546Z,28.3
2017-01-11T05:55:15.992Z,28.3
2017-01-11T05:56:16.102Z,28.3
2017-01-11T05:57:14.380Z,28.3
2017-01-11T05:58:14.592Z,28.3
2017-01-11T05:59:14.676Z,28.3
2017-01-11T06:00:14.664Z,28.3
2017-01-11T06:01:14.657Z,28.3
2017-01-11T06:02:14.677Z,28.3
2017-01-11T06:03:14.609Z,28.2
2017-01-11T06:04:16.799Z,28.3
2017-01-11T06:05:14.899Z,28.3
2017-01-11T06:06:16.547Z,28.2
2017-01-11T06:07:14.758Z,28.2
2017-01-11T06:08:15.088Z,28.2
2017-01-11T06:09:16.639Z,28.2
2017-01-11T06:10:15.033Z,28.2
2017-01-11T06:11:17.649Z,28.2
2017-01-11T06:12:15.079Z,28.2
2017-01-11T06:13:16.844Z,28.2
2017-01-11T06:14:15.056Z,28.2
2017-01-11T06:15:16.703Z,28.2
2017-01-11T06:16:16.888Z,28.2
2017-01-11T06:17:15.279Z,28.2
2017-01-11T06:18:17.383Z,28.2
2017-01-11T06:19:15.233Z,28.2
2017-01-11T06:20:15.524Z,28.2
2017-01-11T06:21:16.974Z,28.3
2017-01-11T06:22:17.063Z,28.3
2017-01-11T06:23:15.760Z,28.3
2017-01-11T06:24:15.728Z,28.2
2017-01-11T06:25:17.902Z,28.3
2017-01-11T06:26:15.843Z,28.3
2017-01-11T06:27:17.356Z,28.3
2017-01-11T06:28:15.885Z,28.2
2017-01-11T06:29:17.387Z,28.3
2017-01-11T06:30:15.933Z,28.3
2017-01-11T06:31:15.813Z,28.3
2017-01-11T06:32:16.407Z,28.2
2017-01-11T06:33:16.049Z,28.3
2017-01-11T06:34:17.719Z,28.3
2017-01-11T06:35:18.480Z,28.3
2017-01-11T06:36:16.176Z,28.3
2017-01-11T06:37:16.389Z,28.2
2017-01-11T06:38:19.382Z,28.3
2017-01-11T06:39:18.509Z,28.3
2017-01-11T06:40:16.436Z,28.3
2017-01-11T06:41:18.208Z,28.3
2017-01-11T06:42:18.030Z,28.3
2017-01-11T06:43:16.611Z,28.3
2017-01-11T06:44:18.910Z,28.3
2017-01-11T06:45:16.740Z,28.3
2017-01-11T06:46:16.670Z,28.3
2017-01-11T06:47:23.174Z,28.3
2017-01-11T06:48:17.536Z,28.3
2017-01-11T06:49:18.533Z,28.3
2017-01-11T06:50:20.268Z,28.3
2017-01-11T06:51:16.959Z,28.3
2017-01-11T06:52:19.263Z,28.3
2017-01-11T06:53:18.495Z,28.3
2017-01-11T06:54:16.963Z,28.3
2017-01-11T06:55:20.075Z,28.3
2017-01-11T06:56:19.402Z,28.3
2017-01-11T06:57:19.446Z,28.3
2017-01-11T06:58:17.382Z,28.3
2017-01-11T06:59:18.003Z,28.3
2017-01-11T07:00:18.931Z,28.3
2017-01-11T07:01:17.441Z,28.3
2017-01-11T07:02:19.196Z,28.3
2017-01-11T07:03:17.611Z,28.3
2017-01-11T07:04:17.541Z,28.3
2017-01-11T07:05:17.644Z,28.3
2017-01-11T07:06:59.327Z,28.3
2017-01-11T07:07:59.380Z,28.3
2017-01-11T07:08:59.302Z,28.3
2017-01-11T07:09:58.642Z,28.3
2017-01-11T07:10:58.437Z,28.3
2017-01-11T07:12:00.736Z,28.3
2017-01-11T07:12:59.747Z,28.3
2017-01-11T07:13:58.603Z,28.3
2017-01-11T07:14:59.610Z,28.3
2017-01-11T07:15:58.703Z,28
2017-01-11T07:16:59.614Z,27.5
2017-01-11T07:17:57.974Z,26.9
2017-01-11T07:19:02.426Z,26.4
2017-01-11T07:19:58.249Z,25.7
2017-01-11T07:20:58.287Z,25.1
2017-01-11T07:21:58.842Z,24.7
2017-01-11T07:22:58.304Z,24.4
2017-01-11T07:23:59.873Z,24
2017-01-11T07:24:59.951Z,23.6
2017-01-11T07:25:59.973Z,23.3
2017-01-11T07:26:58.534Z,23.1
2017-01-11T07:27:58.590Z,23
2017-01-11T07:29:12.378Z,23
2017-01-11T07:30:00.119Z,22.9
2017-01-11T07:31:00.202Z,22.7
2017-01-11T07:32:03.861Z,22.4
2017-01-11T07:32:58.705Z,22.2
2017-01-11T07:34:03.006Z,22
2017-01-11T07:35:00.488Z,22
2017-01-11T07:35:58.959Z,22.1
2017-01-11T07:37:00.485Z,22.3
2017-01-11T07:38:00.579Z,22.5
2017-01-11T07:38:59.529Z,22.8
2017-01-11T07:40:00.664Z,23
2017-01-11T07:40:59.303Z,23.2
2017-01-11T07:42:00.805Z,23.5
2017-01-11T07:43:01.381Z,23.7
2017-01-11T07:43:59.312Z,23.9
2017-01-11T07:45:01.512Z,24.1
2017-01-11T07:46:01.576Z,24.3
2017-01-11T07:46:59.381Z,24.5
2017-01-11T07:47:59.396Z,24.6
2017-01-11T07:49:01.229Z,24.8
2017-01-11T07:50:00.261Z,24.9
2017-01-11T07:50:59.710Z,25
2017-01-11T07:51:59.638Z,25.1
2017-01-11T07:53:01.461Z,25.3
2017-01-11T07:54:01.485Z,25.3
2017-01-11T07:55:00.575Z,25.3
2017-01-11T07:57:01.686Z,25
2017-01-11T07:58:05.332Z,24.8
2017-01-11T07:59:00.829Z,24.6
2017-01-11T08:00:01.761Z,24.5
2017-01-11T08:01:00.284Z,24.3
2017-01-11T08:02:00.251Z,24.1
2017-01-11T08:03:01.610Z,24
2017-01-11T08:04:02.715Z,24
2017-01-11T08:05:00.423Z,23.8
2017-01-11T08:06:02.800Z,23.9
2017-01-11T08:07:02.118Z,24
2017-01-11T08:08:00.457Z,24.2
2017-01-11T08:09:02.329Z,24.3
2017-01-11T08:10:02.159Z,24.4
2017-01-11T08:11:04.220Z,24.6
2017-01-11T08:12:02.274Z,24.7
2017-01-11T08:13:02.241Z,24.5
2017-01-11T08:14:00.688Z,24.9
2017-01-11T08:15:00.764Z,25
2017-01-11T08:16:01.557Z,25.1
2017-01-11T08:17:00.904Z,25.2
2017-01-11T08:18:07.918Z,25.2
2017-01-11T08:19:07.664Z,25.4
2017-01-11T08:20:08.272Z,25.4
2017-01-11T08:21:01.772Z,25.5
2017-01-11T08:22:02.679Z,25.6
2017-01-11T08:23:04.031Z,25.6
2017-01-11T08:24:04.073Z,25.7
2017-01-11T08:25:03.016Z,25.8
2017-01-11T08:26:01.964Z,25.9
2017-01-11T08:27:03.091Z,25.9
2017-01-11T08:28:02.035Z,25.9
2017-01-11T08:29:06.034Z,26
2017-01-11T08:30:03.192Z,26.1
2017-01-11T08:31:01.510Z,26.2
2017-01-11T08:32:05.185Z,26.2
2017-01-11T08:33:05.309Z,26.3
2017-01-11T08:34:07.605Z,26.3
2017-01-11T08:35:01.979Z,26.3
2017-01-11T08:36:01.825Z,26.4
2017-01-11T08:37:03.556Z,26.4
2017-01-11T08:38:02.020Z,26.5
2017-01-11T08:39:04.225Z,26.5
2017-01-11T08:40:03.690Z,26.6
2017-01-11T08:41:02.029Z,26.6
2017-01-11T08:42:03.620Z,26.6
2017-01-11T08:43:04.291Z,26.7
2017-01-11T08:44:03.758Z,26.7
2017-01-11T08:45:04.521Z,26.8
2017-01-11T08:46:02.996Z,26.8
2017-01-11T08:47:05.438Z,26.9
2017-01-11T08:48:05.739Z,26.9
2017-01-11T08:49:03.808Z,26.9
2017-01-11T08:50:03.630Z,27
2017-01-11T08:51:04.968Z,27
2017-01-11T08:52:02.602Z,27
2017-01-11T08:53:05.287Z,27.1
2017-01-11T08:54:04.229Z,27.1
2017-01-11T08:55:04.657Z,27.2
2017-01-11T08:56:09.472Z,27.2
2017-01-11T08:57:04.124Z,27.2
2017-01-11T08:58:02.969Z,27.3
2017-01-11T08:59:07.575Z,27.3
2017-01-11T09:00:07.028Z,27.4
2017-01-11T09:01:06.290Z,27.4
2017-01-11T09:02:03.442Z,27.4
2017-01-11T09:03:06.333Z,27.4
2017-01-11T09:04:03.940Z,27.5
2017-01-11T09:05:03.982Z,27.5
2017-01-11T09:06:04.076Z,27.5
2017-01-11T09:07:05.093Z,27.5
2017-01-11T09:08:05.616Z,27.5
2017-01-11T09:09:06.550Z,27.5
2017-01-11T09:10:03.836Z,27.6
2017-01-11T09:11:05.048Z,27.6
2017-01-11T09:12:06.723Z,27.6
2017-01-11T09:13:05.058Z,27.6
2017-01-11T09:14:04.678Z,27.6
2017-01-11T09:15:03.950Z,27.7
2017-01-11T09:16:06.144Z,27.7
2017-01-11T09:17:06.280Z,27.7
2017-01-11T09:18:05.560Z,27.7
2017-01-11T09:19:05.740Z,27.8
2017-01-11T09:20:05.871Z,27.8
2017-01-11T09:21:05.987Z,27.8
2017-01-11T09:22:04.822Z,27.9
2017-01-11T09:23:04.182Z,27.9
2017-01-11T09:24:12.302Z,27.9
2017-01-11T09:25:06.069Z,27.9
2017-01-11T09:26:09.639Z,27.9
2017-01-11T09:27:05.977Z,28
2017-01-11T09:28:11.900Z,28
2017-01-11T09:29:14.228Z,28
2017-01-11T09:30:28.296Z,28
2017-01-11T09:31:23.379Z,28
2017-01-11T09:32:28.665Z,28
2017-01-11T09:33:39.152Z,28
2017-01-11T09:34:30.132Z,28
2017-01-11T09:35:24.415Z,28
2017-01-11T09:36:29.815Z,28
2017-01-11T09:37:25.898Z,28
2017-01-11T09:38:24.548Z,28.1
2017-01-11T09:39:08.545Z,28.1
2017-01-11T09:40:17.989Z,28.1
2017-01-11T09:41:15.012Z,28.2
2017-01-11T09:42:13.843Z,28.2
2017-01-11T09:43:10.870Z,28.2
2017-01-11T09:44:08.409Z,28.3
2017-01-11T09:45:05.896Z,28.3
2017-01-11T09:46:18.160Z,28.4
2017-01-11T09:47:13.359Z,28.4
2017-01-11T09:48:25.268Z,28.4
2017-01-11T09:49:11.023Z,28.5
2017-01-11T09:50:07.958Z,28.5
2017-01-11T09:51:07.645Z,28.5
2017-01-11T09:52:07.229Z,28.5
2017-01-11T09:53:07.093Z,28.6
2017-01-11T09:54:09.354Z,28.6
2017-01-11T09:55:15.010Z,28.6
2017-01-11T09:56:10.841Z,28.6
2017-01-11T09:57:08.763Z,28.7
2017-01-11T09:58:07.486Z,28.7
2017-01-11T09:59:07.166Z,28.8
2017-01-11T10:00:07.362Z,28.8
2017-01-11T10:01:05.869Z,28.9
2017-01-11T10:02:06.595Z,28.9
2017-01-11T10:03:06.850Z,29
2017-01-11T10:04:07.458Z,29
2017-01-11T10:05:06.772Z,29
2017-01-11T10:06:09.233Z,29
2017-01-11T10:07:06.864Z,29.1
2017-01-11T10:08:07.354Z,29.1
2017-01-11T10:09:07.902Z,29.2
2017-01-11T10:10:08.515Z,29.2
2017-01-11T10:11:08.845Z,29.2
2017-01-11T10:12:08.691Z,29.3
2017-01-11T10:13:08.246Z,29.3
2017-01-11T10:14:07.231Z,29.4
2017-01-11T10:15:08.274Z,29.4
2017-01-11T10:16:07.360Z,29.4
2017-01-11T10:17:07.424Z,29.5
2017-01-11T10:18:06.690Z,29.5
2017-01-11T10:19:08.517Z,29.5
2017-01-11T10:20:06.763Z,29.6
2017-01-11T10:21:09.186Z,29.6
2017-01-11T10:22:07.066Z,29.6
2017-01-11T10:23:07.063Z,29.7
2017-01-11T10:24:07.051Z,29.7
2017-01-11T10:25:11.431Z,29.7
2017-01-11T10:26:07.821Z,29.7
2017-01-11T10:27:07.636Z,29.7
2017-01-11T10:28:09.300Z,29.7
2017-01-11T10:29:09.605Z,29.7
2017-01-11T10:30:11.586Z,29.7
2017-01-11T10:31:07.969Z,29.7
2017-01-11T10:32:11.363Z,29.8
2017-01-11T10:33:14.942Z,29.8
2017-01-11T10:34:15.503Z,29.7
2017-01-11T10:35:10.779Z,29.7
2017-01-11T10:36:07.738Z,29.6
2017-01-11T10:37:09.319Z,29.6
2017-01-11T10:38:11.271Z,29.6
2017-01-11T10:39:10.363Z,29.6
2017-01-11T10:40:09.605Z,29.6
2017-01-11T10:41:09.233Z,29.6
2017-01-11T10:42:11.807Z,29.6
2017-01-11T10:43:09.703Z,29.5
2017-01-11T10:44:08.235Z,29.6
2017-01-11T10:45:08.772Z,29.5
2017-01-11T10:46:12.351Z,29.5
2017-01-11T10:47:08.998Z,29.5
2017-01-11T10:48:09.871Z,29.5
2017-01-11T10:49:11.174Z,29.5
2017-01-11T10:50:13.872Z,29.5
2017-01-11T10:51:15.120Z,29.5
2017-01-11T10:52:21.860Z,29.5
2017-01-11T10:53:21.642Z,29.5
2017-01-11T10:54:20.196Z,29.5
2017-01-11T10:55:27.258Z,29.5
2017-01-11T10:56:27.817Z,29.6
2017-01-11T10:57:17.181Z,29.6
2017-01-11T10:58:34.709Z,29.6
2017-01-11T10:59:24.006Z,29.6
2017-01-11T11:00:17.566Z,29.6
2017-01-11T11:01:27.986Z,29.6
2017-01-11T11:02:22.756Z,29.6
2017-01-11T11:03:16.553Z,29.7
2017-01-11T11:04:13.237Z,29.7
2017-01-11T11:05:12.676Z,29.7
2017-01-11T11:06:14.130Z,29.8
2017-01-11T11:07:19.229Z,29.8
2017-01-11T11:08:11.650Z,29.8
2017-01-11T11:09:10.915Z,29.8
2017-01-11T11:10:10.523Z,29.9
2017-01-11T11:11:11.256Z,29.9
2017-01-11T11:12:13.694Z,29.9
2017-01-11T11:13:13.010Z,29.9
2017-01-11T11:14:19.701Z,29.9
2017-01-11T11:15:19.188Z,29.9
2017-01-11T11:16:13.331Z,29.9
2017-01-11T11:17:17.702Z,29.9
2017-01-11T11:18:13.508Z,29.9
2017-01-11T11:19:13.236Z,30
2017-01-11T11:20:11.125Z,30
2017-01-11T11:21:10.884Z,29.9
2017-01-11T11:22:17.220Z,29.9
2017-01-11T11:23:10.654Z,30
2017-01-11T11:24:13.913Z,30
2017-01-11T11:25:22.540Z,30
2017-01-11T11:26:16.382Z,30
2017-01-11T11:27:11.675Z,30
2017-01-11T11:28:10.416Z,30
2017-01-11T11:29:15.501Z,29.9
2017-01-11T11:30:15.197Z,29.7
2017-01-11T11:31:10.780Z,29.5
2017-01-11T11:32:14.317Z,29.3
2017-01-11T11:33:11.946Z,29
2017-01-11T11:34:25.355Z,28.9
2017-01-11T11:35:13.580Z,28.8
2017-01-11T11:36:21.366Z,28.7
2017-01-11T11:37:21.674Z,28.7
2017-01-11T11:38:22.863Z,28.8
2017-01-11T11:39:20.510Z,28.8
2017-01-11T11:40:16.357Z,28.8
2017-01-11T11:41:15.235Z,28.9
2017-01-11T11:42:18.870Z,29
2017-01-11T11:43:14.105Z,29
2017-01-11T11:44:19.663Z,29.1
2017-01-11T11:45:22.298Z,29.1
2017-01-11T11:46:24.629Z,29.2
2017-01-11T11:47:14.776Z,29.2
2017-01-11T11:48:15.089Z,29.2
2017-01-11T11:49:24.567Z,29.3
2017-01-11T11:50:16.668Z,29.3
2017-01-11T11:51:16.626Z,29.4
2017-01-11T11:52:21.195Z,29.4
2017-01-11T11:53:16.838Z,29.4
2017-01-11T11:54:17.203Z,29.4
2017-01-11T11:55:15.551Z,29.5
2017-01-11T11:56:13.853Z,29.5
2017-01-11T11:57:12.597Z,29.5
2017-01-11T11:58:13.949Z,29.5
2017-01-11T11:59:15.058Z,29.5
2017-01-11T12:00:15.937Z,29.5
2017-01-11T12:01:15.019Z,29.6
2017-01-11T12:02:17.030Z,29.5
2017-01-11T12:03:15.285Z,29.6
2017-01-11T12:04:17.920Z,29.6
2017-01-11T12:05:18.755Z,29.6
2017-01-11T12:06:15.991Z,29.6
2017-01-11T12:07:16.683Z,29.6
2017-01-11T12:08:17.199Z,29.6
2017-01-11T12:09:12.950Z,29.7
2017-01-11T12:10:14.832Z,29.7
2017-01-11T12:11:18.558Z,29.7
2017-01-11T12:12:13.816Z,29.7
2017-01-11T12:13:15.480Z,29.7
2017-01-11T12:14:18.111Z,29.8
2017-01-11T12:15:16.995Z,29.7
2017-01-11T12:16:15.896Z,29.8
2017-01-11T12:17:24.377Z,29.8
2017-01-11T12:18:19.839Z,29.8
2017-01-11T12:19:17.569Z,29.8
2017-01-11T12:20:15.092Z,29.8
2017-01-11T12:21:16.049Z,29.9
2017-01-11T12:22:13.494Z,29.9
2017-01-11T12:23:17.214Z,29.9
2017-01-11T12:24:16.170Z,29.9
2017-01-11T12:25:27.222Z,29.9
2017-01-11T12:26:21.856Z,30
2017-01-11T12:27:14.743Z,30
2017-01-11T12:28:16.576Z,30
2017-01-11T12:29:16.264Z,30
2017-01-11T12:30:16.958Z,30
2017-01-11T12:31:16.079Z,30
2017-01-11T12:32:15.902Z,30
2017-01-11T12:33:19.662Z,30
2017-01-11T12:34:16.232Z,30
2017-01-11T12:35:15.770Z,30.1
2017-01-11T12:36:14.338Z,30.1
2017-01-11T12:37:13.764Z,30.1
2017-01-11T12:38:14.325Z,30.1
2017-01-11T12:39:13.780Z,30.1
2017-01-11T12:40:15.665Z,30.1
2017-01-11T12:41:16.471Z,30.1
2017-01-11T12:42:17.769Z,30.2
2017-01-11T12:43:16.268Z,30.2
2017-01-11T12:44:13.995Z,30.2
2017-01-11T12:45:18.306Z,30.2
2017-01-11T12:46:16.288Z,30.3
2017-01-11T12:47:17.541Z,30.3
2017-01-11T12:48:14.428Z,30.3
2017-01-11T12:49:17.618Z,30.3
2017-01-11T12:50:19.282Z,30.3
2017-01-11T12:51:15.682Z,30.4
2017-01-11T12:52:16.050Z,30.4
2017-01-11T12:53:16.839Z,30.4
2017-01-11T12:54:17.223Z,30.4
2017-01-11T12:55:16.252Z,30.4
2017-01-11T12:56:14.652Z,30.4
2017-01-11T12:57:16.215Z,30.4
2017-01-11T12:58:17.429Z,30.4
2017-01-11T12:59:15.743Z,30.4
2017-01-11T13:00:15.019Z,30.5
2017-01-11T13:01:15.658Z,30.5
2017-01-11T13:02:17.311Z,30.5
2017-01-11T13:03:18.013Z,30.4
2017-01-11T13:04:17.436Z,30.5
2017-01-11T13:05:17.422Z,30.4
2017-01-11T13:06:20.308Z,30.4
2017-01-11T13:07:18.049Z,30.4
2017-01-11T13:08:19.395Z,30.5
2017-01-11T13:09:18.474Z,30.5
2017-01-11T13:10:16.302Z,30.5
2017-01-11T13:11:18.655Z,30.5
2017-01-11T13:12:19.787Z,30.5
2017-01-11T13:13:17.640Z,30.5
2017-01-11T13:14:19.883Z,30.5
2017-01-11T13:15:20.874Z,30.5
2017-01-11T13:16:17.525Z,30.5
2017-01-11T13:17:19.049Z,30.5
2017-01-11T13:18:17.414Z,30.5
2017-01-11T13:19:18.017Z,30.5
2017-01-11T13:20:16.862Z,30.5
2017-01-11T13:21:18.944Z,30.5
2017-01-11T13:22:16.613Z,30.5
2017-01-11T13:23:19.404Z,30.6
2017-01-11T13:24:20.262Z,30.6